Time;durP1;ratioP1;P1;durP2;ratioP2;P2;SDS_P1;SDS_P2;PMS_P1;PMS_P2;Temp;Humidity;BMP_temperature;BMP_pressure;BME280_temperature;BME280_humidity;BME280_pressure;Samples;Min_cycle;Max_cycle;Signal;HPM_P1;HPM_P2
2023/04/11 00:00:53;;;;;;;4.13;2.13;;;;;;;;;;5073620;28;20463;-65
2023/04/11 00:03:21;;;;;;;1.93;1.73;;;;;;;;;;5073183;28;20476;-65
2023/04/11 00:05:48;;;;;;;2.28;1.95;;;;;;;;;;5073097;28;20444;-65
2023/04/11 00:08:16;;;;;;;3.88;2.03;;;;;;;;;;5072935;28;20213;-65
2023/04/11 00:10:45;;;;;;;2.13;1.93;;;;;;;;;;5073271;28;20197;-65
2023/04/11 00:13:12;;;;;;;3.80;1.97;;;;;;;;;;5072836;28;20440;-65
2023/04/11 00:15:39;;;;;;;2.13;2.03;;;;;;;;;;5074566;28;20455;-65
2023/04/11 00:18:06;;;;;;;3.00;1.80;;;;;;;;;;5077010;28;20448;-65
2023/04/11 00:20:34;;;;;;;2.67;2.00;;;;;;;;;;5077049;28;20447;-65
2023/04/11 00:23:01;;;;;;;1.88;1.77;;;;;;;;;;5076915;28;20486;-65
2023/04/11 00:25:29;;;;;;;3.97;2.05;;;;;;;;;;5076967;28;20681;-65
2023/04/11 00:27:57;;;;;;;17.73;3.30;;;;;;;;;;5077396;28;20217;-65
2023/04/11 00:30:25;;;;;;;3.47;3.17;;;;;;;;;;5077015;28;20444;-65
2023/04/11 00:32:52;;;;;;;2.80;1.97;;;;;;;;;;5076738;28;20194;-66
2023/04/11 00:35:19;;;;;;;2.97;2.30;;;;;;;;;;5077248;28;20444;-65
2023/04/11 00:37:48;;;;;;;3.70;2.23;;;;;;;;;;5076668;28;21024;-65
2023/04/11 00:40:17;;;;;;;4.90;2.77;;;;;;;;;;5076917;28;20859;-65
2023/04/11 00:42:44;;;;;;;3.03;2.13;;;;;;;;;;5077161;28;20448;-65
2023/04/11 00:45:13;;;;;;;4.35;1.88;;;;;;;;;;5076796;28;20194;-65
2023/04/11 00:47:41;;;;;;;5.60;2.20;;;;;;;;;;5076723;28;20240;-65
2023/04/11 00:50:08;;;;;;;3.75;2.05;;;;;;;;;;5076535;28;20455;-65
2023/04/11 00:52:37;;;;;;;3.38;2.33;;;;;;;;;;5077024;28;20285;-65
2023/04/11 00:55:04;;;;;;;4.25;2.50;;;;;;;;;;5076591;28;20248;-65
2023/04/11 00:57:32;;;;;;;3.38;2.83;;;;;;;;;;5076616;28;20255;-65
2023/04/11 00:59:59;;;;;;;3.90;2.60;;;;;;;;;;5076760;28;20198;-65
2023/04/11 01:02:28;;;;;;;3.00;2.57;;;;;;;;;;5076361;28;20444;-65
2023/04/11 01:04:55;;;;;;;4.47;2.67;;;;;;;;;;5076672;28;20484;-65
2023/04/11 01:07:23;;;;;;;3.45;2.72;;;;;;;;;;5076407;28;20480;-66
2023/04/11 01:09:51;;;;;;;5.55;3.70;;;;;;;;;;5076360;28;20285;-65
2023/04/11 01:12:20;;;;;;;7.18;3.40;;;;;;;;;;5076468;28;20243;-65
2023/04/11 01:14:47;;;;;;;3.80;3.27;;;;;;;;;;5076194;28;20194;-65
2023/04/11 01:17:14;;;;;;;5.80;3.20;;;;;;;;;;5076529;28;20429;-65
2023/04/11 01:19:43;;;;;;;10.07;3.80;;;;;;;;;;5075889;28;20447;-65
2023/04/11 01:22:13;;;;;;;5.43;4.10;;;;;;;;;;5076049;28;21031;-65
2023/04/11 01:24:42;;;;;;;6.60;3.23;;;;;;;;;;5075761;28;20432;-65
2023/04/11 01:27:09;;;;;;;7.20;4.10;;;;;;;;;;5075629;28;20585;-65
2023/04/11 01:29:36;;;;;;;6.97;3.92;;;;;;;;;;5075664;28;20949;-65
2023/04/11 01:32:03;;;;;;;6.00;4.10;;;;;;;;;;5076159;28;20202;-65
2023/04/11 01:34:31;;;;;;;8.27;4.17;;;;;;;;;;5076385;28;20445;-65
2023/04/11 01:36:58;;;;;;;6.27;3.70;;;;;;;;;;5075937;28;20448;-65
2023/04/11 01:39:25;;;;;;;16.20;5.60;;;;;;;;;;5075760;28;20535;-65
2023/04/11 01:41:54;;;;;;;7.97;4.30;;;;;;;;;;5075814;28;20463;-65
2023/04/11 01:44:22;;;;;;;15.50;5.20;;;;;;;;;;5075402;28;20447;-65
2023/04/11 01:46:49;;;;;;;7.65;3.70;;;;;;;;;;5075535;28;20662;-65
2023/04/11 01:49:16;;;;;;;12.33;4.17;;;;;;;;;;5075761;28;20218;-65
2023/04/11 01:51:43;;;;;;;10.50;4.37;;;;;;;;;;5075345;28;20442;-65
2023/04/11 01:54:10;;;;;;;10.27;4.15;;;;;;;;;;5075679;28;20451;-65
2023/04/11 01:56:37;;;;;;;9.63;4.60;;;;;;;;;;5075686;28;20195;-65
2023/04/11 01:59:06;;;;;;;6.23;3.90;;;;;;;;;;5075586;28;20448;-66
2023/04/11 02:01:33;;;;;;;13.03;4.67;;;;;;;;;;5075195;28;20952;-65
2023/04/11 02:04:01;;;;;;;9.47;4.20;;;;;;;;;;5075921;28;20522;-65
2023/04/11 02:06:28;;;;;;;8.02;4.80;;;;;;;;;;5075505;28;20448;-65
2023/04/11 02:08:55;;;;;;;5.30;4.20;;;;;;;;;;5075706;28;20308;-65
2023/04/11 02:11:22;;;;;;;9.10;3.93;;;;;;;;;;5075112;28;20444;-65
2023/04/11 02:13:50;;;;;;;8.37;5.50;;;;;;;;;;5075064;28;20459;-64
2023/04/11 02:16:19;;;;;;;12.07;4.53;;;;;;;;;;5074716;28;20440;-65
2023/04/11 02:18:46;;;;;;;11.18;4.90;;;;;;;;;;5075639;28;20255;-63
2023/04/11 02:21:13;;;;;;;10.82;3.00;;;;;;;;;;5075132;28;20556;-64
2023/04/11 02:23:41;;;;;;;11.15;3.90;;;;;;;;;;5075069;28;20233;-64
2023/04/11 02:26:08;;;;;;;5.13;3.30;;;;;;;;;;5074879;28;20190;-65
2023/04/11 02:28:35;;;;;;;11.38;3.47;;;;;;;;;;5075380;28;20214;-65
2023/04/11 02:31:03;;;;;;;14.73;6.10;;;;;;;;;;5074727;28;20243;-65
2023/04/11 02:33:31;;;;;;;11.93;5.70;;;;;;;;;;5074423;28;20205;-65
2023/04/11 02:35:59;;;;;;;10.73;5.15;;;;;;;;;;5074994;28;20197;-65
2023/04/11 02:38:26;;;;;;;14.95;5.55;;;;;;;;;;5073840;28;20285;-65
2023/04/11 02:40:53;;;;;;;15.32;6.68;;;;;;;;;;5074895;28;20198;-65
2023/04/11 02:43:20;;;;;;;12.40;5.40;;;;;;;;;;5074658;28;20220;-65
2023/04/11 02:45:47;;;;;;;15.23;6.13;;;;;;;;;;5074498;28;20559;-65
2023/04/11 02:48:14;;;;;;;18.45;6.80;;;;;;;;;;5074519;28;20225;-65
2023/04/11 02:50:43;;;;;;;19.15;5.95;;;;;;;;;;5074372;28;20198;-65
2023/04/11 02:53:11;;;;;;;13.13;6.05;;;;;;;;;;5074452;28;20217;-65
2023/04/11 02:55:38;;;;;;;14.95;6.03;;;;;;;;;;5074972;28;20194;-65
2023/04/11 02:58:06;;;;;;;16.75;6.28;;;;;;;;;;5074636;28;20202;-65
2023/04/11 03:00:33;;;;;;;13.30;6.07;;;;;;;;;;5074306;28;20562;-65
2023/04/11 03:03:01;;;;;;;22.90;6.22;;;;;;;;;;5074136;28;20238;-66
2023/04/11 03:05:28;;;;;;;19.57;7.57;;;;;;;;;;5073826;28;20748;-65
2023/04/11 03:07:57;;;;;;;16.77;6.03;;;;;;;;;;5074113;28;20440;-65
2023/04/11 03:10:24;;;;;;;25.92;6.30;;;;;;;;;;5074035;28;20204;-65
2023/04/11 03:12:52;;;;;;;19.10;7.47;;;;;;;;;;5073669;28;20194;-66
2023/04/11 03:15:19;;;;;;;23.50;6.78;;;;;;;;;;5073645;28;20211;-65
2023/04/11 03:17:46;;;;;;;16.58;6.43;;;;;;;;;;5073990;28;20194;-65
2023/04/11 03:20:18;;;;;;;15.75;6.75;;;;;;;;;;5074332;28;20204;-66
2023/04/11 03:22:45;;;;;;;12.13;5.28;;;;;;;;;;5074128;28;20273;-66
2023/04/11 03:25:14;;;;;;;11.73;6.22;;;;;;;;;;5074450;28;20585;-66
2023/04/11 03:27:41;;;;;;;25.33;7.28;;;;;;;;;;5073783;28;20198;-66
2023/04/11 03:30:09;;;;;;;16.17;6.90;;;;;;;;;;5073988;28;20228;-66
2023/04/11 03:32:36;;;;;;;20.98;6.97;;;;;;;;;;5073687;28;20193;-66
2023/04/11 03:35:03;;;;;;;13.43;6.10;;;;;;;;;;5074719;28;20201;-66
2023/04/11 03:37:30;;;;;;;24.55;6.40;;;;;;;;;;5073683;28;20202;-65
2023/04/11 03:39:58;;;;;;;22.60;7.60;;;;;;;;;;5074013;28;20201;-66
2023/04/11 03:42:26;;;;;;;28.10;7.22;;;;;;;;;;5073662;28;20194;-67
2023/04/11 03:44:53;;;;;;;18.23;6.78;;;;;;;;;;5073305;28;20289;-66
2023/04/11 03:47:20;;;;;;;28.33;6.82;;;;;;;;;;5073542;28;20198;-66
2023/04/11 03:49:48;;;;;;;20.70;6.35;;;;;;;;;;5073288;28;20221;-65
2023/04/11 03:52:16;;;;;;;20.92;6.78;;;;;;;;;;5073556;28;20198;-70
2023/04/11 03:54:43;;;;;;;25.10;6.85;;;;;;;;;;5052611;28;20198;-68
2023/04/11 03:57:11;;;;;;;12.38;6.40;;;;;;;;;;5085784;28;20650;-67
2023/04/11 03:59:39;;;;;;;15.65;7.65;;;;;;;;;;5093445;28;20207;-67
2023/04/11 04:02:06;;;;;;;20.42;6.63;;;;;;;;;;5093505;28;20193;-67
2023/04/11 04:04:35;;;;;;;18.77;6.95;;;;;;;;;;5093712;28;20270;-67
2023/04/11 04:07:03;;;;;;;13.93;6.47;;;;;;;;;;5093397;28;20219;-67
2023/04/11 04:09:30;;;;;;;12.48;6.18;;;;;;;;;;5093454;28;20295;-68
2023/04/11 04:11:57;;;;;;;15.18;6.88;;;;;;;;;;5093778;28;20190;-68
2023/04/11 04:14:24;;;;;;;9.52;5.70;;;;;;;;;;5093970;28;20199;-67
2023/04/11 04:16:53;;;;;;;20.38;6.45;;;;;;;;;;5093394;28;20193;-68
2023/04/11 04:19:20;;;;;;;16.20;6.13;;;;;;;;;;5093082;28;20197;-67
2023/04/11 04:21:48;;;;;;;14.63;6.20;;;;;;;;;;5093287;28;20643;-68
2023/04/11 04:24:16;;;;;;;20.45;7.57;;;;;;;;;;5093304;28;20292;-67
2023/04/11 04:26:44;;;;;;;13.73;5.60;;;;;;;;;;5093259;28;20223;-67
2023/04/11 04:29:12;;;;;;;16.02;5.65;;;;;;;;;;5093263;28;20225;-67
2023/04/11 04:31:39;;;;;;;16.58;5.93;;;;;;;;;;5093212;28;20220;-68
2023/04/11 04:34:09;;;;;;;27.10;6.97;;;;;;;;;;5093327;28;20280;-67
2023/04/11 04:36:45;;;;;;;12.40;4.65;;;;;;;;;;5093222;28;20205;-68
2023/04/11 04:39:16;;;;;;;14.07;6.00;;;;;;;;;;5093537;28;20189;-68
2023/04/11 04:41:44;;;;;;;12.98;6.22;;;;;;;;;;5093468;28;20268;-67
2023/04/11 04:44:11;;;;;;;13.35;4.68;;;;;;;;;;5093538;28;20190;-67
2023/04/11 04:46:38;;;;;;;6.70;3.50;;;;;;;;;;5093108;28;20366;-66
2023/04/11 04:49:05;;;;;;;15.23;5.07;;;;;;;;;;5093135;28;20230;-66
2023/04/11 04:51:34;;;;;;;11.45;4.28;;;;;;;;;;5092744;28;20203;-67
2023/04/11 04:54:01;;;;;;;9.73;3.45;;;;;;;;;;5092711;28;20276;-67
2023/04/11 04:56:29;;;;;;;9.20;4.07;;;;;;;;;;5091276;28;20189;-69
2023/04/11 04:58:56;;;;;;;14.75;4.63;;;;;;;;;;5092184;28;20202;-68
2023/04/11 05:01:25;;;;;;;3.03;2.60;;;;;;;;;;5093875;28;20558;-68
2023/04/11 05:03:58;;;;;;;12.02;3.75;;;;;;;;;;5096054;28;20221;-69
2023/04/11 05:06:26;;;;;;;7.40;3.70;;;;;;;;;;5096901;28;20184;-69
2023/04/11 05:08:56;;;;;;;12.98;3.50;;;;;;;;;;5096715;28;20263;-69
2023/04/11 05:11:23;;;;;;;12.07;3.03;;;;;;;;;;5097149;28;20264;-69
2023/04/11 05:13:51;;;;;;;4.07;2.20;;;;;;;;;;5097208;28;20199;-69
2023/04/11 05:16:18;;;;;;;6.15;2.60;;;;;;;;;;5096642;28;20202;-68
2023/04/11 05:18:45;;;;;;;4.50;2.95;;;;;;;;;;5096492;28;20202;-69
2023/04/11 05:21:13;;;;;;;5.68;2.72;;;;;;;;;;5096230;28;20196;-69
2023/04/11 05:23:41;;;;;;;3.45;2.15;;;;;;;;;;5096065;28;20203;-69
2023/04/11 05:26:10;;;;;;;6.90;2.78;;;;;;;;;;5096413;28;20200;-69
2023/04/11 05:28:37;;;;;;;7.97;2.85;;;;;;;;;;5096171;28;20195;-69
2023/04/11 05:31:05;;;;;;;8.95;2.80;;;;;;;;;;5096003;28;20195;-69
2023/04/11 05:33:32;;;;;;;7.07;2.97;;;;;;;;;;5096223;28;20527;-69
2023/04/11 05:35:59;;;;;;;6.82;3.50;;;;;;;;;;5096263;28;20560;-69
2023/04/11 05:38:27;;;;;;;7.50;3.10;;;;;;;;;;5096119;28;20203;-69
2023/04/11 05:40:54;;;;;;;8.10;2.88;;;;;;;;;;5095767;28;20207;-69
2023/04/11 05:43:22;;;;;;;5.55;3.20;;;;;;;;;;5096114;28;20189;-68
2023/04/11 05:45:50;;;;;;;7.20;3.10;;;;;;;;;;5096101;28;20196;-71
2023/04/11 05:48:18;;;;;;;6.97;3.38;;;;;;;;;;5096190;28;20619;-68
2023/04/11 05:50:45;;;;;;;4.25;3.10;;;;;;;;;;5095538;28;20220;-68
2023/04/11 05:53:12;;;;;;;10.30;3.30;;;;;;;;;;5095723;28;20196;-68
2023/04/11 05:55:40;;;;;;;10.57;3.70;;;;;;;;;;5095777;28;20246;-68
2023/04/11 05:58:07;;;;;;;10.05;4.00;;;;;;;;;;5096182;28;20196;-68
2023/04/11 06:00:40;;;;;;;11.50;3.63;;;;;;;;;;5095434;28;20208;-68
2023/04/11 06:03:09;;;;;;;7.50;3.30;;;;;;;;;;5095462;28;20224;-68
2023/04/11 06:05:36;;;;;;;14.82;3.80;;;;;;;;;;5095579;28;20200;-68
2023/04/11 06:08:04;;;;;;;13.07;5.40;;;;;;;;;;5095465;28;20201;-68
2023/04/11 06:10:32;;;;;;;10.32;4.00;;;;;;;;;;5095447;28;20246;-68
2023/04/11 06:12:59;;;;;;;17.83;4.50;;;;;;;;;;5095278;28;20196;-68
2023/04/11 06:15:26;;;;;;;9.90;4.45;;;;;;;;;;5095095;28;20237;-69
2023/04/11 06:17:54;;;;;;;16.80;4.80;;;;;;;;;;5094961;28;20197;-68
2023/04/11 06:20:23;;;;;;;17.48;6.97;;;;;;;;;;5095458;28;20204;-68
2023/04/11 06:22:51;;;;;;;11.93;4.88;;;;;;;;;;5095507;28;20204;-68
2023/04/11 06:25:18;;;;;;;15.45;4.55;;;;;;;;;;5094915;28;20225;-68
2023/04/11 06:27:45;;;;;;;23.58;4.25;;;;;;;;;;5095294;28;20200;-68
2023/04/11 06:30:13;;;;;;;17.73;5.13;;;;;;;;;;5095117;28;20217;-68
2023/04/11 06:32:40;;;;;;;19.17;5.05;;;;;;;;;;5094796;28;20204;-68
2023/04/11 06:35:08;;;;;;;9.88;4.22;;;;;;;;;;5094842;28;20205;-68
2023/04/11 06:37:36;;;;;;;14.82;4.88;;;;;;;;;;5094673;28;20656;-68
2023/04/11 06:40:05;;;;;;;7.47;4.32;;;;;;;;;;5095115;28;20239;-68
2023/04/11 06:42:33;;;;;;;10.38;4.70;;;;;;;;;;5095101;28;20243;-68
2023/04/11 06:45:00;;;;;;;6.60;3.67;;;;;;;;;;5094444;28;20200;-68
2023/04/11 06:47:27;;;;;;;10.77;4.45;;;;;;;;;;5095401;28;20200;-68
2023/04/11 06:49:55;;;;;;;7.28;3.38;;;;;;;;;;5094709;28;20216;-67
2023/04/11 06:52:22;;;;;;;8.10;4.80;;;;;;;;;;5094375;28;20196;-68
2023/04/11 06:54:51;;;;;;;9.30;4.40;;;;;;;;;;5094821;28;20198;-68
2023/04/11 06:57:18;;;;;;;13.15;4.57;;;;;;;;;;5094355;28;20197;-68
2023/04/11 06:59:45;;;;;;;16.35;5.30;;;;;;;;;;5094690;28;20224;-68
2023/04/11 07:02:12;;;;;;;12.95;4.13;;;;;;;;;;5095186;28;20197;-67
2023/04/11 07:04:40;;;;;;;7.13;3.80;;;;;;;;;;5093918;28;20197;-68
2023/04/11 07:07:07;;;;;;;11.75;3.45;;;;;;;;;;5094080;28;20292;-67
2023/04/11 07:09:34;;;;;;;8.80;5.07;;;;;;;;;;5094229;28;20254;-67
2023/04/11 07:12:04;;;;;;;8.85;3.83;;;;;;;;;;5094464;28;20197;-67
2023/04/11 07:14:32;;;;;;;13.57;3.95;;;;;;;;;;5094564;28;20198;-67
2023/04/11 07:17:00;;;;;;;6.57;3.30;;;;;;;;;;5094688;28;20197;-67
2023/04/11 07:19:27;;;;;;;6.65;3.80;;;;;;;;;;5094190;28;20197;-67
2023/04/11 07:21:55;;;;;;;11.57;3.67;;;;;;;;;;5094149;28;20197;-67
2023/04/11 07:24:22;;;;;;;8.02;2.30;;;;;;;;;;5093575;28;20327;-67
2023/04/11 07:26:52;;;;;;;4.20;3.00;;;;;;;;;;5094095;28;20190;-67
2023/04/11 07:29:20;;;;;;;7.82;3.67;;;;;;;;;;5093855;28;20197;-67
2023/04/11 07:31:48;;;;;;;3.22;2.13;;;;;;;;;;5094044;28;20194;-67
2023/04/11 07:34:15;;;;;;;6.65;2.25;;;;;;;;;;5093976;28;20672;-67
2023/04/11 07:36:42;;;;;;;7.38;2.13;;;;;;;;;;5094298;28;20201;-67
2023/04/11 07:39:11;;;;;;;12.68;2.70;;;;;;;;;;5094022;28;20193;-67
2023/04/11 07:41:38;;;;;;;2.92;1.65;;;;;;;;;;5094090;28;20604;-67
2023/04/11 07:44:06;;;;;;;1.55;1.45;;;;;;;;;;5093797;28;20193;-67
2023/04/11 07:46:35;;;;;;;7.20;2.25;;;;;;;;;;5094083;28;20196;-67
2023/04/11 07:49:02;;;;;;;7.72;2.30;;;;;;;;;;5093599;28;20200;-67
2023/04/11 07:51:30;;;;;;;6.50;2.35;;;;;;;;;;5093486;28;20223;-67
2023/04/11 07:53:57;;;;;;;5.83;2.00;;;;;;;;;;5093250;28;20219;-68
2023/04/11 07:56:24;;;;;;;5.10;2.20;;;;;;;;;;5093732;28;20467;-68
2023/04/11 07:58:51;;;;;;;10.65;2.50;;;;;;;;;;5093444;28;20193;-68
2023/04/11 08:01:22;;;;;;;4.28;2.03;;;;;;;;;;5093636;28;20211;-68
2023/04/11 08:03:52;;;;;;;3.80;1.60;;;;;;;;;;5093341;28;20270;-68
2023/04/11 08:06:19;;;;;;;2.20;2.00;;;;;;;;;;5093311;28;20196;-68
2023/04/11 08:08:47;;;;;;;4.70;2.22;;;;;;;;;;5093185;28;20193;-67
2023/04/11 08:11:14;;;;;;;3.80;2.10;;;;;;;;;;5093291;28;20709;-69
2023/04/11 08:13:41;;;;;;;4.35;1.85;;;;;;;;;;5093486;28;20204;-67
2023/04/11 08:16:09;;;;;;;5.93;1.80;;;;;;;;;;5093453;28;20200;-67
2023/04/11 08:18:40;;;;;;;6.57;2.20;;;;;;;;;;5093408;28;20440;-67
2023/04/11 08:21:10;;;;;;;8.30;2.40;;;;;;;;;;5093434;28;20596;-67
2023/04/11 08:23:40;;;;;;;7.03;2.28;;;;;;;;;;5093055;28;20232;-68
2023/04/11 08:26:08;;;;;;;1.90;1.75;;;;;;;;;;5092920;28;20208;-67
2023/04/11 08:28:35;;;;;;;6.15;2.05;;;;;;;;;;5093532;28;20194;-70
2023/04/11 08:31:03;;;;;;;11.32;1.90;;;;;;;;;;5093184;28;20225;-67
2023/04/11 08:33:30;;;;;;;6.70;1.80;;;;;;;;;;5093325;28;20193;-68
2023/04/11 08:35:57;;;;;;;7.50;1.90;;;;;;;;;;5093542;28;20189;-67
2023/04/11 08:38:26;;;;;;;6.22;2.60;;;;;;;;;;5097239;28;20208;-67
2023/04/11 08:40:53;;;;;;;5.72;2.45;;;;;;;;;;5096762;28;20201;-67
2023/04/11 08:43:20;;;;;;;2.50;1.50;;;;;;;;;;5097150;28;20204;-67
2023/04/11 08:45:47;;;;;;;2.50;1.60;;;;;;;;;;5097024;28;20435;-67
2023/04/11 08:48:14;;;;;;;4.77;1.90;;;;;;;;;;5096761;28;20433;-68
2023/04/11 08:50:42;;;;;;;4.53;2.10;;;;;;;;;;5096581;28;20475;-67
2023/04/11 08:53:09;;;;;;;8.93;2.20;;;;;;;;;;5097358;28;20193;-68
2023/04/11 08:55:45;;;;;;;8.80;1.93;;;;;;;;;;5097477;28;20248;-67
2023/04/11 08:58:12;;;;;;;5.13;2.07;;;;;;;;;;5096465;28;20427;-67
2023/04/11 09:00:39;;;;;;;3.75;1.90;;;;;;;;;;5096394;28;20453;-67
2023/04/11 09:03:07;;;;;;;7.53;2.10;;;;;;;;;;5096345;28;20599;-67
2023/04/11 09:05:37;;;;;;;5.43;1.90;;;;;;;;;;5096308;28;20467;-67
2023/04/11 09:08:06;;;;;;;6.78;1.90;;;;;;;;;;5096311;28;20942;-68
2023/04/11 09:10:33;;;;;;;7.67;2.17;;;;;;;;;;5096681;28;20217;-68
2023/04/11 09:13:02;;;;;;;5.47;2.03;;;;;;;;;;5096597;28;20436;-67
2023/04/11 09:15:30;;;;;;;9.63;2.60;;;;;;;;;;5096739;28;20436;-67
2023/04/11 09:17:58;;;;;;;5.65;2.50;;;;;;;;;;5096232;28;20439;-67
2023/04/11 09:20:28;;;;;;;6.38;2.00;;;;;;;;;;5096333;28;20208;-68
2023/04/11 09:22:57;;;;;;;9.57;3.45;;;;;;;;;;5096286;28;20212;-68
2023/04/11 09:25:25;;;;;;;7.60;2.80;;;;;;;;;;5096246;28;20239;-68
2023/04/11 09:28:07;;;;;;;2.30;1.97;;;;;;;;;;5096580;28;20455;-69
2023/04/11 09:30:36;;;;;;;8.77;3.70;;;;;;;;;;5096327;28;20470;-68
2023/04/11 09:33:20;;;;;;;7.57;2.23;;;;;;;;;;5095876;28;21966;-68
2023/04/11 09:35:48;;;;;;;6.70;2.20;;;;;;;;;;5096017;28;20831;-68
2023/04/11 09:38:15;;;;;;;6.40;2.10;;;;;;;;;;5096182;28;20447;-67
2023/04/11 09:40:43;;;;;;;5.40;2.40;;;;;;;;;;5095976;28;20799;-68
2023/04/11 09:43:10;;;;;;;12.07;2.37;;;;;;;;;;5096007;28;20454;-68
2023/04/11 09:45:39;;;;;;;4.13;2.50;;;;;;;;;;5095921;28;20530;-67
2023/04/11 09:48:06;;;;;;;11.30;2.97;;;;;;;;;;5095755;28;20805;-68
2023/04/11 09:50:35;;;;;;;5.87;2.60;;;;;;;;;;5095800;28;20835;-67
2023/04/11 09:53:03;;;;;;;4.00;2.70;;;;;;;;;;5095772;28;20445;-67
2023/04/11 09:55:30;;;;;;;6.90;2.53;;;;;;;;;;5095636;28;20440;-68
2023/04/11 09:57:58;;;;;;;6.97;2.80;;;;;;;;;;5095447;28;20445;-67
2023/04/11 10:00:28;;;;;;;9.57;2.80;;;;;;;;;;5095595;28;20816;-69
2023/04/11 10:02:57;;;;;;;4.40;2.90;;;;;;;;;;5095975;28;20475;-67
2023/04/11 10:05:26;;;;;;;5.90;2.33;;;;;;;;;;5096046;28;20457;-68
2023/04/11 10:07:57;;;;;;;4.73;1.77;;;;;;;;;;5095755;28;20432;-67
2023/04/11 10:10:25;;;;;;;4.60;2.00;;;;;;;;;;5095469;28;20474;-67
2023/04/11 10:12:52;;;;;;;3.27;2.27;;;;;;;;;;5095303;28;20542;-69
2023/04/11 10:15:21;;;;;;;9.13;2.87;;;;;;;;;;5095365;28;20451;-68
2023/04/11 10:18:07;;;;;;;12.13;3.20;;;;;;;;;;5094848;28;20929;-69
2023/04/11 10:20:43;;;;;;;8.50;2.70;;;;;;;;;;5095200;28;20448;-67
2023/04/11 10:23:11;;;;;;;7.87;3.10;;;;;;;;;;5094842;28;20991;-67
2023/04/11 10:26:00;;;;;;;3.33;2.07;;;;;;;;;;5095231;28;20440;-67
2023/04/11 10:28:31;;;;;;;6.97;2.90;;;;;;;;;;5090687;28;20455;-67
2023/04/11 10:31:02;;;;;;;13.73;5.00;;;;;;;;;;5094594;28;20925;-67
2023/04/11 10:33:30;;;;;;;5.57;2.40;;;;;;;;;;5095140;28;20451;-67
2023/04/11 10:36:02;;;;;;;6.23;3.00;;;;;;;;;;5094868;28;20443;-67
2023/04/11 10:38:45;;;;;;;9.73;2.67;;;;;;;;;;5094950;28;20420;-67
2023/04/11 10:41:20;;;;;;;10.30;2.73;;;;;;;;;;5093505;28;20505;-67
2023/04/11 10:43:47;;;;;;;9.23;2.60;;;;;;;;;;5094872;28;20427;-67
2023/04/11 10:46:18;;;;;;;7.03;2.90;;;;;;;;;;5094258;28;20543;-67
2023/04/11 10:48:57;;;;;;;7.83;2.80;;;;;;;;;;5094779;28;20749;-67
2023/04/11 10:51:26;;;;;;;8.17;3.00;;;;;;;;;;5094511;28;20459;-67
2023/04/11 10:53:54;;;;;;;6.40;2.63;;;;;;;;;;5094403;28;20459;-67
2023/04/11 10:56:40;;;;;;;4.43;2.20;;;;;;;;;;5094416;28;20439;-67
2023/04/11 10:59:08;;;;;;;6.97;2.30;;;;;;;;;;5093639;28;20447;-67
2023/04/11 11:01:36;;;;;;;8.20;3.70;;;;;;;;;;5094300;28;20489;-67
2023/04/11 11:04:04;;;;;;;9.20;2.43;;;;;;;;;;5094182;28;20488;-68
2023/04/11 11:06:34;;;;;;;4.87;2.37;;;;;;;;;;5094002;28;20512;-68
2023/04/11 11:09:20;;;;;;;2.40;1.70;;;;;;;;;;5094405;28;20450;-68
2023/04/11 11:12:05;;;;;;;5.10;2.13;;;;;;;;;;5094816;28;20467;-68
2023/04/11 11:14:32;;;;;;;6.53;3.93;;;;;;;;;;5094783;28;20428;-67
2023/04/11 11:16:59;;;;;;;5.47;2.50;;;;;;;;;;5094062;28;20523;-68
2023/04/11 11:19:27;;;;;;;6.20;2.17;;;;;;;;;;5094331;28;20531;-68
2023/04/11 11:21:58;;;;;;;5.77;2.50;;;;;;;;;;5094027;28;20446;-68
2023/04/11 11:24:25;;;;;;;8.30;2.70;;;;;;;;;;5094500;28;20480;-67
2023/04/11 11:26:53;;;;;;;4.83;2.33;;;;;;;;;;5093934;28;20452;-68
2023/04/11 11:29:30;;;;;;;5.13;2.83;;;;;;;;;;5094113;28;20451;-68
2023/04/11 11:31:58;;;;;;;9.60;2.20;;;;;;;;;;5093859;28;20513;-68
2023/04/11 11:34:27;;;;;;;5.13;2.60;;;;;;;;;;5094177;28;20785;-67
2023/04/11 11:36:56;;;;;;;6.20;2.53;;;;;;;;;;5093325;28;20440;-68
2023/04/11 11:39:24;;;;;;;7.53;2.70;;;;;;;;;;5093531;28;20448;-68
2023/04/11 11:41:52;;;;;;;2.27;1.93;;;;;;;;;;5093465;28;20951;-68
2023/04/11 11:44:23;;;;;;;11.13;2.73;;;;;;;;;;5093734;28;20521;-68
2023/04/11 11:47:03;;;;;;;4.53;1.90;;;;;;;;;;5093772;28;20466;-68
2023/04/11 11:49:44;;;;;;;7.93;2.40;;;;;;;;;;5093653;28;20466;-68
2023/04/11 11:52:13;;;;;;;4.67;2.20;;;;;;;;;;5093960;28;20462;-68
2023/04/11 11:54:46;;;;;;;4.90;2.23;;;;;;;;;;5093934;28;20538;-68
2023/04/11 11:57:21;;;;;;;5.97;2.20;;;;;;;;;;5093139;28;20938;-68
2023/04/11 11:59:53;;;;;;;10.63;2.57;;;;;;;;;;5094352;28;20433;-68
2023/04/11 12:02:21;;;;;;;7.40;2.50;;;;;;;;;;5093352;28;20434;-68
2023/04/11 12:04:48;;;;;;;5.50;2.30;;;;;;;;;;5093934;28;20479;-68
2023/04/11 12:07:21;;;;;;;7.97;2.50;;;;;;;;;;5093535;28;20445;-68
2023/04/11 12:09:48;;;;;;;5.80;2.27;;;;;;;;;;5094352;28;20433;-68
2023/04/11 12:12:16;;;;;;;4.77;2.20;;;;;;;;;;5100293;28;20480;-67
2023/04/11 12:14:52;;;;;;;8.60;2.33;;;;;;;;;;5100496;28;20438;-68
2023/04/11 12:17:19;;;;;;;6.40;2.50;;;;;;;;;;5100595;28;20416;-68
2023/04/11 12:19:46;;;;;;;4.20;2.13;;;;;;;;;;5100360;28;20440;-68
2023/04/11 12:22:14;;;;;;;4.33;1.77;;;;;;;;;;5100323;28;20859;-68
2023/04/11 12:24:42;;;;;;;3.60;1.53;;;;;;;;;;5100338;27;20541;-67
2023/04/11 12:27:11;;;;;;;5.57;1.93;;;;;;;;;;5100562;28;20445;-68
2023/04/11 12:29:38;;;;;;;10.13;2.13;;;;;;;;;;5099999;28;20448;-68
2023/04/11 12:32:05;;;;;;;3.97;2.20;;;;;;;;;;5100055;28;20486;-68
2023/04/11 12:34:32;;;;;;;3.83;1.87;;;;;;;;;;5100059;28;20548;-68
2023/04/11 12:37:00;;;;;;;2.60;1.60;;;;;;;;;;5099886;28;20512;-68
2023/04/11 12:39:27;;;;;;;5.83;1.70;;;;;;;;;;5099728;28;20450;-68
2023/04/11 12:41:56;;;;;;;4.53;1.50;;;;;;;;;;5099902;28;20445;-68
2023/04/11 12:44:23;;;;;;;5.73;2.13;;;;;;;;;;5099624;28;20560;-68
2023/04/11 12:46:50;;;;;;;2.87;1.60;;;;;;;;;;5099863;28;20494;-68
2023/04/11 12:49:17;;;;;;;5.13;1.80;;;;;;;;;;5099776;28;20458;-68
2023/04/11 12:51:45;;;;;;;4.07;1.73;;;;;;;;;;5099772;28;20472;-72
2023/04/11 12:54:12;;;;;;;5.73;2.10;;;;;;;;;;5100044;28;20443;-68
2023/04/11 12:56:40;;;;;;;2.80;1.53;;;;;;;;;;5099515;28;20474;-65
2023/04/11 12:59:09;;;;;;;8.33;1.70;;;;;;;;;;5099391;28;20528;-66
2023/04/11 13:01:36;;;;;;;1.63;1.30;;;;;;;;;;5100083;28;20808;-65
2023/04/11 13:04:04;;;;;;;4.53;1.73;;;;;;;;;;5099646;28;20520;-66
2023/04/11 13:06:31;;;;;;;5.17;1.80;;;;;;;;;;5099375;28;20452;-66
2023/04/11 13:08:58;;;;;;;6.33;1.83;;;;;;;;;;5099918;28;20452;-66
2023/04/11 13:11:25;;;;;;;3.60;1.80;;;;;;;;;;5097453;28;20483;-66
2023/04/11 13:13:53;;;;;;;5.17;2.00;;;;;;;;;;5079293;28;20477;-66
2023/04/11 13:16:23;;;;;;;2.30;1.60;;;;;;;;;;5092450;28;20941;-65
2023/04/11 13:18:50;;;;;;;3.43;1.63;;;;;;;;;;5099653;28;20441;-66
2023/04/11 13:21:17;;;;;;;2.27;1.93;;;;;;;;;;5099443;28;20854;-66
2023/04/11 13:23:45;;;;;;;2.03;1.40;;;;;;;;;;5095706;28;20926;-66
2023/04/11 13:26:12;;;;;;;3.50;1.60;;;;;;;;;;5096047;28;20441;-65
2023/04/11 13:28:39;;;;;;;3.00;1.43;;;;;;;;;;5095809;28;20452;-65
2023/04/11 13:31:09;;;;;;;2.77;1.80;;;;;;;;;;5096608;28;20844;-66
2023/04/11 13:33:39;;;;;;;4.30;1.97;;;;;;;;;;5095908;28;20451;-65
2023/04/11 13:36:06;;;;;;;4.00;1.57;;;;;;;;;;5096050;28;20436;-66
2023/04/11 13:38:34;;;;;;;8.03;2.10;;;;;;;;;;5096113;28;20544;-70
2023/04/11 13:41:01;;;;;;;6.37;1.67;;;;;;;;;;5096033;28;20436;-66
2023/04/11 13:43:28;;;;;;;3.67;1.50;;;;;;;;;;5096116;28;20455;-68
2023/04/11 13:45:55;;;;;;;4.03;2.03;;;;;;;;;;5096083;28;20446;-66
2023/04/11 13:48:22;;;;;;;1.53;1.23;;;;;;;;;;5096141;28;20444;-66
2023/04/11 13:50:51;;;;;;;2.40;1.57;;;;;;;;;;5095444;28;20529;-66
2023/04/11 13:53:18;;;;;;;3.27;1.80;;;;;;;;;;5095674;28;20829;-66
2023/04/11 13:55:47;;;;;;;4.40;1.57;;;;;;;;;;5095644;28;20448;-66
2023/04/11 13:58:15;;;;;;;3.33;1.70;;;;;;;;;;5096129;28;20459;-66
2023/04/11 14:00:43;;;;;;;3.93;1.27;;;;;;;;;;5095301;28;20927;-65
2023/04/11 14:03:10;;;;;;;2.63;1.47;;;;;;;;;;5095147;28;20477;-65
2023/04/11 14:05:38;;;;;;;2.83;1.40;;;;;;;;;;5095542;28;20448;-65
2023/04/11 14:08:07;;;;;;;2.23;1.40;;;;;;;;;;5096009;28;20457;-65
2023/04/11 14:10:34;;;;;;;4.83;1.93;;;;;;;;;;5095483;28;21001;-66
2023/04/11 14:13:04;;;;;;;2.60;1.67;;;;;;;;;;5095059;28;20466;-66
2023/04/11 14:15:31;;;;;;;5.00;1.70;;;;;;;;;;5095103;28;20443;-66
2023/04/11 14:17:58;;;;;;;2.60;1.57;;;;;;;;;;5096249;28;20530;-66
2023/04/11 14:20:26;;;;;;;2.10;1.30;;;;;;;;;;5094901;28;20521;-66
2023/04/11 14:22:53;;;;;;;6.20;1.50;;;;;;;;;;5095523;28;20547;-66
2023/04/11 14:25:28;;;;;;;1.53;1.30;;;;;;;;;;5095444;28;20440;-67
2023/04/11 14:27:55;;;;;;;2.83;1.60;;;;;;;;;;5095177;28;20421;-67
2023/04/11 14:30:23;;;;;;;1.83;1.30;;;;;;;;;;5094747;28;20931;-67
2023/04/11 14:32:50;;;;;;;2.10;1.33;;;;;;;;;;5094828;28;20830;-66
2023/04/11 14:35:17;;;;;;;4.50;1.63;;;;;;;;;;5093912;28;20442;-68
2023/04/11 14:37:44;;;;;;;3.47;1.40;;;;;;;;;;5095016;28;20887;-66
2023/04/11 14:40:12;;;;;;;3.60;1.73;;;;;;;;;;5094828;28;20468;-66
2023/04/11 14:42:41;;;;;;;1.87;1.67;;;;;;;;;;5095654;28;20760;-66
2023/04/11 14:45:08;;;;;;;4.00;1.30;;;;;;;;;;5094628;28;20491;-67